Time;durP1;ratioP1;P1;durP2;ratioP2;P2;SDS_P1;SDS_P2;PMS_P1;PMS_P2;Temp;Humidity;BMP_temperature;BMP_pressure;BME280_temperature;BME280_humidity;BME280_pressure;Samples;Min_cycle;Max_cycle;Signal;HPM_P1;HPM_P2
2022/11/21 00:00:41;;;;;;;21.40;13.00;;;2.30;99.90;;;;;;5012389;28;20041;-70
2022/11/21 00:03:09;;;;;;;21.83;13.63;;;2.30;99.90;;;;;;5011526;28;20132;-69
2022/11/21 00:05:39;;;;;;;19.55;12.75;;;2.30;99.90;;;;;;5013991;28;20129;-69
2022/11/21 00:08:05;;;;;;;20.20;12.40;;;2.30;99.90;;;;;;5011890;28;20038;-69
2022/11/21 00:10:31;;;;;;;19.50;12.05;;;2.30;99.90;;;;;;5012609;28;20095;-69
2022/11/21 00:12:57;;;;;;;19.20;12.52;;;2.30;99.90;;;;;;5012965;28;20103;-70
2022/11/21 00:15:24;;;;;;;20.75;12.55;;;2.40;99.90;;;;;;5012358;28;20041;-70
2022/11/21 00:17:50;;;;;;;20.27;12.50;;;2.40;99.90;;;;;;5012856;28;20101;-69
2022/11/21 00:20:18;;;;;;;19.90;12.40;;;2.30;99.90;;;;;;5012869;28;20430;-70
2022/11/21 00:22:43;;;;;;;20.75;12.85;;;2.40;99.90;;;;;;5012603;28;20050;-69
2022/11/21 00:25:09;;;;;;;21.20;12.68;;;2.30;99.90;;;;;;5012260;28;20049;-69
2022/11/21 00:27:35;;;;;;;19.92;12.20;;;2.30;99.90;;;;;;5010678;28;20034;-70
2022/11/21 00:30:01;;;;;;;20.90;12.70;;;2.30;99.90;;;;;;4995354;28;20045;-69
2022/11/21 00:32:27;;;;;;;22.08;13.70;;;2.30;99.90;;;;;;5012206;28;20137;-70
2022/11/21 00:34:52;;;;;;;18.00;11.75;;;2.30;99.90;;;;;;5013606;28;20367;-69
2022/11/21 00:37:18;;;;;;;19.58;12.13;;;2.30;99.90;;;;;;5012590;28;20038;-70
2022/11/21 00:39:43;;;;;;;20.55;12.48;;;2.30;99.90;;;;;;5012201;28;20398;-70
2022/11/21 00:42:09;;;;;;;20.17;12.65;;;2.20;99.90;;;;;;5012550;28;20159;-69
2022/11/21 00:44:34;;;;;;;22.20;13.48;;;2.20;99.90;;;;;;5012540;28;20040;-69
2022/11/21 00:47:00;;;;;;;20.13;13.48;;;2.20;99.90;;;;;;5013156;28;20042;-69
2022/11/21 00:49:26;;;;;;;18.50;12.80;;;2.20;99.90;;;;;;5012539;28;20037;-69
2022/11/21 00:51:51;;;;;;;21.83;12.90;;;2.20;99.90;;;;;;5013427;28;20048;-69
2022/11/21 00:54:17;;;;;;;21.08;13.93;;;2.10;99.90;;;;;;5014200;28;20038;-69
2022/11/21 00:56:42;;;;;;;18.98;12.85;;;2.10;99.90;;;;;;5016506;28;20076;-69
2022/11/21 00:59:08;;;;;;;20.27;13.02;;;2.10;99.90;;;;;;5015978;28;20064;-69
2022/11/21 01:01:33;;;;;;;19.15;11.85;;;2.10;99.90;;;;;;5017042;28;20044;-69
2022/11/21 01:03:59;;;;;;;17.77;11.60;;;2.10;99.90;;;;;;5016469;28;20054;-69
2022/11/21 01:06:24;;;;;;;15.13;10.43;;;2.20;99.90;;;;;;5017089;28;20498;-69
2022/11/21 01:08:50;;;;;;;17.65;9.90;;;2.20;99.90;;;;;;5016228;28;20117;-70
2022/11/21 01:11:19;;;;;;;17.52;9.93;;;2.20;99.90;;;;;;5017031;28;20208;-70
2022/11/21 01:13:46;;;;;;;16.52;10.27;;;2.20;99.90;;;;;;5016871;28;20104;-69
2022/11/21 01:16:13;;;;;;;18.00;10.73;;;2.10;99.90;;;;;;5016805;28;20041;-69
2022/11/21 01:18:39;;;;;;;16.98;11.02;;;2.20;99.90;;;;;;4998614;28;20041;-69
2022/11/21 01:21:16;;;;;;;17.35;11.30;;;2.20;99.90;;;;;;5016871;28;20049;-69
2022/11/21 01:23:43;;;;;;;15.77;9.95;;;2.20;99.90;;;;;;5015651;28;20111;-69
2022/11/21 01:26:12;;;;;;;17.48;11.52;;;2.20;99.90;;;;;;5016000;28;20049;-70
2022/11/21 01:28:38;;;;;;;17.80;11.40;;;2.10;99.90;;;;;;5015770;28;20069;-69
2022/11/21 01:31:07;;;;;;;16.67;10.77;;;2.10;99.90;;;;;;5016777;28;20494;-70
2022/11/21 01:33:33;;;;;;;17.70;11.95;;;2.00;99.90;;;;;;5014466;28;20082;-69
2022/11/21 01:36:11;;;;;;;18.23;11.52;;;2.00;99.90;;;;;;5015243;28;20061;-69
2022/11/21 01:38:38;;;;;;;19.15;11.98;;;1.90;99.90;;;;;;5016420;28;20042;-69
2022/11/21 01:41:04;;;;;;;19.50;12.38;;;1.80;99.90;;;;;;5016309;28;20042;-69
2022/11/21 01:43:29;;;;;;;19.40;12.88;;;1.80;99.90;;;;;;5015874;28;20524;-69
2022/11/21 01:46:02;;;;;;;20.45;12.93;;;1.80;99.90;;;;;;5015114;28;20060;-69
2022/11/21 01:48:35;;;;;;;19.52;12.55;;;1.80;99.90;;;;;;5016357;28;20048;-69
2022/11/21 01:51:36;;;;;;;20.20;13.07;;;1.70;99.90;;;;;;5015675;28;20042;-69
2022/11/21 01:54:08;;;;;;;17.65;11.48;;;1.60;99.90;;;;;;5016453;28;20109;-69
2022/11/21 01:56:50;;;;;;;20.48;13.07;;;1.60;99.90;;;;;;4997631;28;20045;-69
2022/11/21 01:59:39;;;;;;;18.98;12.68;;;1.50;99.90;;;;;;5009703;28;20129;-69
2022/11/21 02:02:07;;;;;;;21.25;13.27;;;1.50;99.90;;;;;;4995246;28;20053;-69
2022/11/21 02:04:34;;;;;;;17.33;11.38;;;1.40;99.90;;;;;;4996282;28;20054;-69
2022/11/21 02:07:05;;;;;;;17.73;11.82;;;1.50;99.90;;;;;;4996253;28;20043;-69
2022/11/21 02:09:33;;;;;;;20.25;12.98;;;1.50;99.90;;;;;;5014871;28;20045;-69
2022/11/21 02:12:08;;;;;;;18.35;12.35;;;1.40;99.90;;;;;;5014972;28;20475;-69
2022/11/21 02:14:35;;;;;;;19.08;12.40;;;1.40;99.90;;;;;;5012877;28;20486;-69
2022/11/21 02:17:06;;;;;;;19.58;12.10;;;1.40;99.90;;;;;;5014140;28;20060;-69
2022/11/21 02:19:46;;;;;;;21.15;12.35;;;1.40;99.90;;;;;;5014751;28;20066;-70
2022/11/21 02:22:26;;;;;;;18.75;12.52;;;1.40;99.90;;;;;;5015737;28;20125;-70
2022/11/21 02:25:08;;;;;;;19.30;12.02;;;1.40;99.90;;;;;;5015709;28;20120;-69
2022/11/21 02:27:34;;;;;;;18.58;11.77;;;1.30;99.90;;;;;;5014034;28;20042;-70
2022/11/21 02:30:05;;;;;;;18.58;11.98;;;1.30;99.90;;;;;;5015564;28;20049;-69
2022/11/21 02:32:46;;;;;;;19.30;12.10;;;1.30;99.90;;;;;;5015344;28;20038;-69
2022/11/21 02:35:16;;;;;;;18.70;11.55;;;1.40;99.90;;;;;;5015332;28;20129;-70
2022/11/21 02:37:45;;;;;;;19.30;12.20;;;1.40;99.90;;;;;;5014625;28;20034;-69
2022/11/21 02:40:24;;;;;;;18.20;12.07;;;1.40;99.90;;;;;;5014353;28;20042;-70
2022/11/21 02:43:05;;;;;;;19.00;12.10;;;1.30;99.90;;;;;;5014853;28;20482;-70
2022/11/21 02:45:38;;;;;;;19.00;12.60;;;1.30;99.90;;;;;;5013390;28;20050;-70
2022/11/21 02:48:04;;;;;;;20.40;12.38;;;1.30;99.90;;;;;;5015055;28;20749;-69
2022/11/21 02:50:35;;;;;;;19.48;12.52;;;1.30;99.90;;;;;;5015255;28;20049;-70
2022/11/21 02:53:03;;;;;;;19.20;12.10;;;1.30;99.90;;;;;;5013453;28;20391;-70
2022/11/21 02:55:28;;;;;;;20.15;12.48;;;1.30;99.90;;;;;;5014180;28;20116;-69
2022/11/21 02:57:54;;;;;;;18.73;11.57;;;1.30;99.90;;;;;;5014828;28;20655;-70
2022/11/21 03:00:20;;;;;;;19.05;11.52;;;1.30;99.90;;;;;;5014265;28;20044;-70
2022/11/21 03:02:46;;;;;;;18.58;11.23;;;1.30;99.90;;;;;;5014912;28;20113;-70
2022/11/21 03:05:15;;;;;;;17.60;10.48;;;1.30;99.90;;;;;;5012371;28;20113;-69
2022/11/21 03:07:41;;;;;;;17.65;10.27;;;1.20;99.90;;;;;;5013495;28;20505;-69
2022/11/21 03:10:07;;;;;;;15.85;9.73;;;1.20;99.90;;;;;;5014786;28;20042;-70
2022/11/21 03:12:36;;;;;;;14.93;9.43;;;1.20;99.90;;;;;;5012937;28;20053;-69
2022/11/21 03:15:02;;;;;;;15.50;10.00;;;1.10;99.90;;;;;;5012903;28;20048;-70
2022/11/21 03:17:27;;;;;;;18.40;10.93;;;1.10;99.90;;;;;;5014374;28;20042;-70
2022/11/21 03:19:53;;;;;;;15.32;10.23;;;1.00;99.90;;;;;;5013937;28;20041;-70
2022/11/21 03:22:18;;;;;;;15.60;9.43;;;1.00;99.90;;;;;;5013726;28;20037;-70
2022/11/21 03:24:44;;;;;;;16.88;9.85;;;1.00;99.90;;;;;;5013713;28;20030;-70
2022/11/21 03:27:09;;;;;;;15.57;9.85;;;1.00;99.90;;;;;;5013379;28;20042;-70
2022/11/21 03:29:35;;;;;;;18.55;10.55;;;1.00;99.90;;;;;;5014509;28;20398;-70
2022/11/21 03:32:00;;;;;;;16.83;10.77;;;1.00;99.90;;;;;;5013630;28;20504;-70
2022/11/21 03:34:26;;;;;;;19.17;10.27;;;1.00;99.90;;;;;;5014447;28;20033;-70
2022/11/21 03:36:51;;;;;;;17.60;10.40;;;1.00;99.90;;;;;;5013532;28;20096;-70
2022/11/21 03:39:17;;;;;;;18.10;11.32;;;1.00;99.90;;;;;;5012984;28;20133;-70
2022/11/21 03:41:43;;;;;;;17.58;11.13;;;0.90;99.90;;;;;;5014193;28;20045;-70
2022/11/21 03:44:10;;;;;;;18.63;11.43;;;0.80;99.90;;;;;;5012245;28;20045;-70
2022/11/21 03:46:39;;;;;;;18.52;11.90;;;0.80;99.90;;;;;;5013344;28;20046;-70
2022/11/21 03:49:05;;;;;;;17.63;10.52;;;0.80;99.90;;;;;;5014140;28;20446;-70
2022/11/21 03:51:31;;;;;;;18.50;11.95;;;0.80;99.90;;;;;;5014073;28;20401;-70
2022/11/21 03:53:57;;;;;;;19.13;11.95;;;0.80;99.90;;;;;;5013502;28;20129;-70
2022/11/21 03:56:23;;;;;;;18.35;11.73;;;0.80;99.90;;;;;;5013077;28;20056;-70
2022/11/21 03:58:49;;;;;;;19.08;12.43;;;0.70;99.90;;;;;;5010556;28;20077;-70
2022/11/21 04:01:15;;;;;;;20.55;12.25;;;0.70;99.90;;;;;;4992558;28;20050;-70
2022/11/21 04:03:44;;;;;;;21.95;13.25;;;0.70;99.90;;;;;;5027782;28;20080;-70
2022/11/21 04:06:12;;;;;;;18.92;11.60;;;0.70;99.90;;;;;;5012868;28;20041;-70
2022/11/21 04:08:38;;;;;;;16.48;10.25;;;0.80;99.90;;;;;;5013737;28;20046;-70
2022/11/21 04:11:05;;;;;;;17.50;10.77;;;0.80;99.90;;;;;;5013681;28;20589;-70
2022/11/21 04:13:30;;;;;;;17.52;10.27;;;0.70;99.90;;;;;;5012957;28;20121;-70
2022/11/21 04:15:56;;;;;;;17.88;10.32;;;0.60;99.90;;;;;;5012436;28;20128;-70
2022/11/21 04:18:22;;;;;;;18.55;11.27;;;0.60;99.90;;;;;;5013738;28;20049;-70
2022/11/21 04:20:47;;;;;;;17.92;12.07;;;0.60;99.90;;;;;;5013559;28;20038;-70
2022/11/21 04:23:13;;;;;;;19.55;11.55;;;0.60;99.90;;;;;;5012968;28;20402;-71
2022/11/21 04:25:40;;;;;;;20.33;12.38;;;0.50;99.90;;;;;;5011578;28;20046;-70
2022/11/21 04:28:06;;;;;;;20.10;12.45;;;0.50;99.90;;;;;;5013336;28;20514;-70
2022/11/21 04:30:33;;;;;;;19.88;12.32;;;0.60;99.90;;;;;;5010752;28;20112;-71
2022/11/21 04:32:59;;;;;;;19.48;11.68;;;0.60;99.90;;;;;;5011269;28;20034;-70
2022/11/21 04:35:25;;;;;;;17.77;11.00;;;0.60;99.90;;;;;;5013465;28;20048;-70
2022/11/21 04:37:51;;;;;;;19.23;11.85;;;0.60;99.90;;;;;;5013416;28;20482;-70
2022/11/21 04:40:17;;;;;;;16.00;10.50;;;0.60;99.90;;;;;;5013298;28;20045;-70
2022/11/21 04:42:47;;;;;;;18.42;10.43;;;0.60;99.90;;;;;;5012444;28;20034;-71
2022/11/21 04:45:14;;;;;;;17.52;11.50;;;0.70;99.90;;;;;;5011532;28;20549;-70
2022/11/21 04:47:43;;;;;;;17.70;11.10;;;0.60;99.90;;;;;;5012089;28;20165;-70
2022/11/21 04:50:11;;;;;;;17.35;11.00;;;0.60;99.90;;;;;;5013681;28;20045;-71
2022/11/21 04:52:37;;;;;;;17.13;10.75;;;0.60;99.90;;;;;;5012573;28;20398;-71
2022/11/21 04:55:03;;;;;;;17.13;10.75;;;0.50;99.90;;;;;;5013309;28;20049;-71
2022/11/21 04:57:30;;;;;;;18.52;11.35;;;0.50;99.90;;;;;;5012287;28;20045;-70
2022/11/21 04:59:55;;;;;;;16.83;10.18;;;0.50;99.90;;;;;;5012156;28;20467;-71
2022/11/21 05:02:21;;;;;;;16.35;9.80;;;0.40;99.90;;;;;;5012368;28;20033;-71
2022/11/21 05:04:47;;;;;;;17.10;9.35;;;0.30;99.90;;;;;;5013038;28;20058;-71
2022/11/21 05:07:12;;;;;;;18.40;11.07;;;0.30;99.90;;;;;;5012308;28;20449;-71
2022/11/21 05:09:38;;;;;;;16.90;10.70;;;0.30;99.90;;;;;;5012438;28;20367;-71
2022/11/21 05:14:48;;;;;;;18.08;11.65;;;0.30;99.90;;;;;;4993496;28;20038;-71
2022/11/21 05:17:14;;;;;;;18.25;11.30;;;0.30;99.90;;;;;;4996422;28;20117;-70
2022/11/21 05:19:39;;;;;;;19.35;11.10;;;0.30;99.90;;;;;;5012877;28;20037;-71
2022/11/21 05:22:05;;;;;;;18.67;10.95;;;0.30;99.90;;;;;;5010924;28;20053;-71
2022/11/21 05:24:31;;;;;;;19.40;11.50;;;0.30;99.90;;;;;;5011831;28;20042;-71
2022/11/21 05:26:56;;;;;;;20.55;12.48;;;0.30;99.90;;;;;;5012179;28;20100;-71
2022/11/21 05:29:22;;;;;;;20.15;12.50;;;0.30;99.90;;;;;;5013030;28;20076;-71
2022/11/21 05:31:47;;;;;;;20.45;13.18;;;0.40;99.90;;;;;;5011502;28;20037;-71
2022/11/21 05:34:13;;;;;;;21.60;12.70;;;0.30;99.90;;;;;;5012811;28;20068;-71
2022/11/21 05:36:38;;;;;;;20.85;13.18;;;0.40;99.90;;;;;;5012860;28;20046;-71
2022/11/21 05:39:04;;;;;;;20.73;12.38;;;0.40;99.90;;;;;;5012456;28;20513;-71
2022/11/21 05:41:30;;;;;;;20.17;12.77;;;0.40;99.90;;;;;;5014289;28;20501;-71
2022/11/21 05:43:55;;;;;;;19.35;12.23;;;0.40;99.90;;;;;;5015571;28;20119;-71
2022/11/21 05:46:24;;;;;;;22.27;12.98;;;0.40;99.90;;;;;;5016333;28;20045;-71
2022/11/21 05:48:51;;;;;;;20.45;12.45;;;0.40;99.90;;;;;;5015465;28;20165;-71
2022/11/21 05:51:17;;;;;;;20.27;12.52;;;0.40;99.90;;;;;;5016275;28;20121;-71
2022/11/21 05:53:45;;;;;;;22.88;13.32;;;0.40;99.90;;;;;;5015373;28;20479;-71
2022/11/21 05:56:13;;;;;;;21.85;13.10;;;0.40;99.90;;;;;;5016315;28;20042;-71
2022/11/21 05:58:38;;;;;;;22.13;13.23;;;0.40;99.90;;;;;;5015414;28;20494;-71
2022/11/21 06:01:06;;;;;;;25.20;13.73;;;0.40;99.90;;;;;;5014718;28;20048;-71
2022/11/21 06:03:35;;;;;;;23.30;14.27;;;0.40;99.90;;;;;;5013657;28;20054;-71
2022/11/21 06:06:06;;;;;;;24.73;14.35;;;0.40;99.90;;;;;;5016077;28;20037;-71
2022/11/21 06:08:40;;;;;;;20.80;12.65;;;0.20;99.90;;;;;;4994603;28;20049;-71
2022/11/21 06:11:07;;;;;;;23.42;15.32;;;0.10;99.90;;;;;;4996286;28;20040;-71
2022/11/21 06:13:33;;;;;;;23.73;14.63;;;0.00;99.90;;;;;;4992001;28;20042;-71
2022/11/21 06:16:00;;;;;;;22.15;13.73;;;-0.10;99.90;;;;;;5031002;28;20552;-71
2022/11/21 06:18:26;;;;;;;21.45;13.70;;;-0.20;99.90;;;;;;5016006;28;20096;-71
2022/11/21 06:20:52;;;;;;;21.17;12.35;;;-0.30;99.90;;;;;;5015627;28;20525;-71
2022/11/21 06:23:18;;;;;;;23.60;14.55;;;-0.30;99.90;;;;;;5014804;28;20038;-71
2022/11/21 06:25:44;;;;;;;25.63;15.05;;;-0.30;99.90;;;;;;5015663;28;20034;-71
2022/11/21 06:28:10;;;;;;;21.38;14.00;;;-0.40;99.90;;;;;;5014718;28;20036;-71
2022/11/21 06:30:37;;;;;;;22.63;13.52;;;-0.40;99.90;;;;;;5013644;28;20038;-71
2022/11/21 06:33:04;;;;;;;23.80;14.50;;;-0.30;99.90;;;;;;5014941;28;20072;-71
2022/11/21 06:35:30;;;;;;;22.33;14.38;;;-0.30;99.90;;;;;;5015568;28;20049;-71
2022/11/21 06:37:57;;;;;;;22.08;13.88;;;-0.20;99.90;;;;;;5014664;28;20045;-71
2022/11/21 06:40:23;;;;;;;23.20;13.32;;;-0.20;99.90;;;;;;5015329;28;20046;-71
2022/11/21 06:42:48;;;;;;;22.92;13.63;;;-0.20;99.90;;;;;;5014498;28;20376;-71
2022/11/21 06:45:14;;;;;;;21.65;13.38;;;-0.20;99.90;;;;;;5015089;28;20048;-71
2022/11/21 06:47:40;;;;;;;23.13;14.05;;;-0.30;99.90;;;;;;5012896;28;20068;-71
2022/11/21 06:50:06;;;;;;;22.83;14.32;;;-0.30;99.90;;;;;;5015148;28;20042;-71
2022/11/21 06:52:32;;;;;;;25.08;14.20;;;-0.40;99.90;;;;;;5013400;28;20034;-71
2022/11/21 06:54:58;;;;;;;22.30;13.75;;;-0.40;99.90;;;;;;5014591;28;20124;-71
2022/11/21 06:57:24;;;;;;;25.30;14.95;;;-0.50;99.90;;;;;;5010251;28;20125;-71
2022/11/21 06:59:49;;;;;;;26.20;15.23;;;-0.40;99.90;;;;;;5013157;28;20029;-71
2022/11/21 07:02:15;;;;;;;25.10;16.17;;;-0.30;99.90;;;;;;5013569;28;20046;-72
2022/11/21 07:04:40;;;;;;;22.52;15.35;;;-0.20;99.90;;;;;;5014739;28;20050;-72
2022/11/21 07:07:06;;;;;;;25.25;15.40;;;-0.30;99.90;;;;;;5014157;28;20068;-71
2022/11/21 07:09:32;;;;;;;23.80;14.25;;;-0.30;99.90;;;;;;4996311;28;20040;-72
2022/11/21 07:13:20;;;;;;;24.98;15.20;;;-0.40;99.90;;;;;;5012851;28;20069;-71
2022/11/21 07:14:44;;;;;;;24.75;14.93;;;-0.40;99.90;;;;;;5004025;28;20052;-71
2022/11/21 07:17:11;;;;;;;22.80;14.13;;;-0.40;99.90;;;;;;5012585;28;20425;-71
2022/11/21 07:19:37;;;;;;;26.60;15.23;;;-0.50;99.90;;;;;;5006373;28;20048;-71
2022/11/21 07:22:02;;;;;;;27.10;15.32;;;-0.50;99.90;;;;;;4993384;28;20125;-71
2022/11/21 07:24:28;;;;;;;25.55;14.73;;;-0.60;99.90;;;;;;5001358;28;20121;-72
2022/11/21 07:26:53;;;;;;;24.15;15.05;;;-0.50;99.90;;;;;;4993634;28;20039;-72
2022/11/21 07:29:19;;;;;;;24.27;15.23;;;-0.50;99.90;;;;;;4994549;28;20113;-72
2022/11/21 07:31:44;;;;;;;25.65;15.00;;;-0.40;99.90;;;;;;5001871;28;20482;-72
2022/11/21 07:34:10;;;;;;;24.02;15.75;;;-0.30;99.90;;;;;;5003604;28;20410;-72
2022/11/21 07:36:36;;;;;;;28.17;16.10;;;-0.30;99.90;;;;;;4999079;28;20391;-71
2022/11/21 07:39:01;;;;;;;25.98;15.93;;;-0.30;99.90;;;;;;5004543;28;20387;-72
2022/11/21 07:41:27;;;;;;;26.85;16.00;;;-0.40;99.90;;;;;;5009859;28;20046;-72
2022/11/21 07:43:53;;;;;;;25.50;16.00;;;-0.50;99.90;;;;;;5012921;28;20030;-71
2022/11/21 07:46:18;;;;;;;26.08;15.75;;;-0.50;99.90;;;;;;5012185;28;20406;-71
2022/11/21 07:48:44;;;;;;;27.35;16.60;;;-0.60;99.90;;;;;;5011239;28;20405;-71
2022/11/21 07:51:10;;;;;;;24.88;15.35;;;-0.60;99.90;;;;;;5011623;28;20061;-71
2022/11/21 07:53:35;;;;;;;26.98;16.90;;;-0.60;99.90;;;;;;5003436;28;20045;-71
2022/11/21 07:56:01;;;;;;;27.80;15.98;;;-0.60;99.90;;;;;;4995699;28;20482;-72
2022/11/21 07:58:27;;;;;;;27.10;16.27;;;-0.50;99.90;;;;;;5012744;28;20044;-71
2022/11/21 08:00:53;;;;;;;26.92;16.48;;;-0.60;99.90;;;;;;5012545;28;20546;-72
2022/11/21 08:03:19;;;;;;;28.95;16.77;;;-0.50;99.90;;;;;;5027281;28;20384;-71
2022/11/21 08:05:44;;;;;;;27.23;15.95;;;-0.50;99.90;;;;;;5007879;28;20050;-72
2022/11/21 08:08:11;;;;;;;27.55;17.42;;;-0.50;99.90;;;;;;4993800;28;20403;-72
2022/11/21 08:10:42;;;;;;;28.42;17.15;;;-0.40;99.90;;;;;;5000147;28;20040;-72
2022/11/21 08:13:08;;;;;;;26.35;16.20;;;-0.40;99.90;;;;;;5009108;28;20442;-71
2022/11/21 08:15:34;;;;;;;28.67;16.88;;;-0.40;99.90;;;;;;5012479;28;20050;-72
2022/11/21 08:18:11;;;;;;;26.25;15.98;;;-0.30;99.90;;;;;;5013152;28;20053;-72
2022/11/21 08:20:37;;;;;;;29.40;16.75;;;-0.30;99.90;;;;;;5010980;28;20044;-72
2022/11/21 08:23:03;;;;;;;31.17;17.33;;;-0.30;99.90;;;;;;5010680;28;20041;-72
2022/11/21 08:25:29;;;;;;;26.42;15.98;;;-0.30;99.90;;;;;;5004820;28;20044;-72
2022/11/21 08:27:57;;;;;;;26.40;16.52;;;-0.20;99.90;;;;;;5004720;28;20065;-72
2022/11/21 08:30:24;;;;;;;24.35;15.05;;;-0.20;99.90;;;;;;4996441;28;20085;-72
2022/11/21 08:32:49;;;;;;;28.30;16.63;;;-0.20;99.90;;;;;;5009516;28;20030;-72
2022/11/21 08:35:15;;;;;;;26.83;15.98;;;-0.10;99.90;;;;;;5011794;28;20041;-72
2022/11/21 08:37:41;;;;;;;26.73;16.92;;;0.00;99.90;;;;;;4991388;28;20042;-72
2022/11/21 08:40:07;;;;;;;29.35;16.92;;;0.10;99.90;;;;;;5001691;28;20119;-72
2022/11/21 08:42:32;;;;;;;28.20;16.88;;;0.30;99.90;;;;;;5011084;28;20038;-73
2022/11/21 08:44:58;;;;;;;26.85;17.50;;;0.40;99.90;;;;;;5012454;28;20430;-72
2022/11/21 08:47:24;;;;;;;28.60;18.40;;;0.40;99.90;;;;;;5017621;28;20048;-72
2022/11/21 08:49:50;;;;;;;25.63;16.05;;;0.40;99.90;;;;;;5012482;28;20116;-72
2022/11/21 08:52:16;;;;;;;25.90;16.33;;;0.50;99.90;;;;;;5013036;28;20467;-72
2022/11/21 08:54:43;;;;;;;26.10;16.40;;;0.60;99.90;;;;;;4994809;28;20104;-72
2022/11/21 08:57:09;;;;;;;25.10;14.02;;;0.60;99.90;;;;;;5011609;28;20093;-71
2022/11/21 08:59:35;;;;;;;27.08;15.95;;;0.80;99.90;;;;;;5011752;28;20046;-71
2022/11/21 09:02:00;;;;;;;26.95;16.00;;;0.90;99.90;;;;;;5011760;28;20049;-71
2022/11/21 09:04:26;;;;;;;25.90;15.15;;;0.90;99.90;;;;;;5025925;28;20045;-71
2022/11/21 09:06:52;;;;;;;27.63;14.85;;;1.10;99.90;;;;;;5009912;28;20494;-71
2022/11/21 09:09:17;;;;;;;24.65;16.20;;;1.20;99.90;;;;;;5011751;28;20038;-71
2022/11/21 09:11:43;;;;;;;23.55;14.02;;;1.30;99.90;;;;;;5011842;28;20096;-71
2022/11/21 09:19:37;;;;;;;24.73;15.80;;;1.20;99.90;;;;;;5015339;28;20487;-71
2022/11/21 09:22:02;;;;;;;26.92;16.95;;;1.10;99.90;;;;;;5013866;28;20049;-71
2022/11/21 09:24:28;;;;;;;20.05;12.25;;;1.10;99.90;;;;;;5014870;28;20034;-71
2022/11/21 09:26:54;;;;;;;26.17;15.82;;;1.30;99.90;;;;;;5012403;28;20033;-71
2022/11/21 09:29:19;;;;;;;25.05;16.10;;;1.40;99.90;;;;;;5015108;28;20041;-71
2022/11/21 09:31:45;;;;;;;23.88;13.48;;;1.40;99.90;;;;;;5016275;28;20038;-71
2022/11/21 09:34:11;;;;;;;25.60;15.73;;;1.50;99.90;;;;;;5015611;28;20042;-71
2022/11/21 09:36:36;;;;;;;24.17;14.50;;;1.50;99.90;;;;;;5014355;28;20042;-70
2022/11/21 09:39:03;;;;;;;25.83;15.02;;;1.50;99.90;;;;;;5015097;28;20080;-71
2022/11/21 09:41:57;;;;;;;24.25;15.10;;;1.40;99.90;;;;;;5015138;28;20057;-70
2022/11/21 09:44:57;;;;;;;24.77;14.95;;;1.50;99.90;;;;;;5013472;28;20096;-71
2022/11/21 09:47:26;;;;;;;19.05;10.68;;;1.50;99.90;;;;;;5015421;28;20065;-70
2022/11/21 09:50:18;;;;;;;25.75;14.50;;;1.60;99.90;;;;;;5003805;28;20032;-70
2022/11/21 09:53:06;;;;;;;25.67;16.45;;;1.70;99.90;;;;;;5015027;28;20487;-71
2022/11/21 09:55:38;;;;;;;23.50;13.77;;;1.70;99.90;;;;;;5015013;28;20042;-70
2022/11/21 09:58:13;;;;;;;26.60;14.65;;;1.70;99.90;;;;;;5014612;28;20371;-71
2022/11/21 10:00:39;;;;;;;22.67;13.23;;;1.70;99.90;;;;;;5014678;28;20046;-70
2022/11/21 10:03:04;;;;;;;24.73;14.63;;;1.90;99.90;;;;;;5000490;28;20174;-71
2022/11/21 10:05:38;;;;;;;22.38;13.98;;;1.80;99.90;;;;;;5011863;28;20088;-70
2022/11/21 10:08:35;;;;;;;23.83;13.40;;;1.90;99.90;;;;;;5018840;28;20037;-71
2022/11/21 10:11:10;;;;;;;21.88;11.52;;;1.90;99.90;;;;;;5011227;28;20380;-70
2022/11/21 10:14:04;;;;;;;26.52;14.50;;;1.90;99.90;;;;;;5014719;28;20073;-70
2022/11/21 10:16:39;;;;;;;24.80;14.38;;;1.90;99.90;;;;;;5013915;28;20045;-70
2022/11/21 10:19:33;;;;;;;25.85;15.70;;;1.80;99.90;;;;;;5014897;28;20041;-71
2022/11/21 10:22:27;;;;;;;23.13;14.13;;;1.90;99.90;;;;;;5014521;28;20044;-70
2022/11/21 10:25:05;;;;;;;23.10;13.77;;;1.90;99.90;;;;;;5015283;28;20041;-70
2022/11/21 10:27:36;;;;;;;21.35;12.45;;;1.90;99.90;;;;;;5005061;28;20042;-70
2022/11/21 10:30:13;;;;;;;21.92;13.48;;;2.00;99.90;;;;;;5013864;28;20486;-70
2022/11/21 10:32:53;;;;;;;23.65;14.18;;;2.00;99.90;;;;;;5014637;28;20061;-70
2022/11/21 10:35:30;;;;;;;17.30;10.05;;;2.00;99.90;;;;;;5014697;28;20038;-70
2022/11/21 10:38:00;;;;;;;19.10;12.63;;;2.00;99.90;;;;;;5012429;28;20375;-70
2022/11/21 10:40:34;;;;;;;26.67;14.30;;;2.10;99.90;;;;;;5013093;28;20434;-70
2022/11/21 10:46:07;;;;;;;22.98;12.90;;;2.10;99.90;;;;;;5007779;28;20058;-69
2022/11/21 10:48:33;;;;;;;21.70;12.52;;;2.20;99.90;;;;;;5011326;28;20045;-70
2022/11/21 10:51:13;;;;;;;24.23;16.17;;;2.20;99.90;;;;;;5024577;28;20121;-70
2022/11/21 10:56:26;;;;;;;26.17;15.85;;;2.10;99.90;;;;;;5014181;28;20049;-70
2022/11/21 10:58:54;;;;;;;26.85;15.70;;;2.20;99.90;;;;;;5013537;28;20115;-69
2022/11/21 11:01:28;;;;;;;20.77;12.88;;;2.20;99.90;;;;;;5013717;28;20045;-69
2022/11/21 11:04:09;;;;;;;23.58;13.45;;;2.30;99.90;;;;;;5012608;28;20050;-70
2022/11/21 11:06:45;;;;;;;24.17;15.98;;;2.30;99.90;;;;;;5011163;28;20064;-69
2022/11/21 11:09:22;;;;;;;18.05;11.05;;;2.50;99.90;;;;;;5013872;28;20042;-69
2022/11/21 11:11:47;;;;;;;20.02;11.75;;;2.50;99.90;;;;;;5011610;28;20513;-69
2022/11/21 11:14:15;;;;;;;20.42;12.80;;;2.60;99.90;;;;;;5013049;28;20076;-69
2022/11/21 11:16:45;;;;;;;22.13;14.70;;;2.60;99.90;;;;;;5014301;28;20447;-69
2022/11/21 11:19:14;;;;;;;20.23;12.50;;;2.50;99.90;;;;;;5010897;28;20045;-70
2022/11/21 11:21:45;;;;;;;20.63;12.10;;;2.60;99.90;;;;;;5012916;28;20080;-69
2022/11/21 11:24:11;;;;;;;18.17;11.40;;;2.60;99.90;;;;;;5013444;28;20038;-69
2022/11/21 11:26:45;;;;;;;18.20;9.65;;;2.70;99.90;;;;;;5011436;28;20054;-69
2022/11/21 11:29:23;;;;;;;19.95;12.18;;;2.90;99.90;;;;;;5011791;28;20038;-69
2022/11/21 11:31:59;;;;;;;20.02;11.90;;;2.90;99.90;;;;;;5012968;28;20528;-69
2022/11/21 11:34:38;;;;;;;21.02;11.85;;;2.80;99.90;;;;;;5013890;28;20109;-69
2022/11/21 11:37:24;;;;;;;18.85;10.85;;;2.80;99.90;;;;;;5013239;28;20445;-69
2022/11/21 11:40:21;;;;;;;18.02;10.95;;;2.90;99.90;;;;;;5007303;28;20093;-68
2022/11/21 11:49:14;;;;;;;17.67;10.55;;;3.00;99.90;;;;;;4994322;28;20499;-69
2022/11/21 11:51:54;;;;;;;18.60;11.30;;;3.10;99.90;;;;;;5012988;28;20044;-68
2022/11/21 11:54:27;;;;;;;17.13;9.30;;;3.00;99.90;;;;;;5013883;28;20034;-69
2022/11/21 11:56:54;;;;;;;12.48;6.75;;;3.20;99.90;;;;;;5012675;28;20128;-69
2022/11/21 11:59:36;;;;;;;17.70;9.95;;;3.30;99.90;;;;;;5010599;28;20053;-69
2022/11/21 12:02:27;;;;;;;16.15;9.75;;;3.40;99.90;;;;;;5013030;28;20517;-69
2022/11/21 12:04:58;;;;;;;15.25;9.13;;;3.40;99.90;;;;;;4993813;28;20058;-68
2022/11/21 12:07:32;;;;;;;17.30;8.65;;;3.50;99.90;;;;;;4976210;28;20042;-68
2022/11/21 12:10:03;;;;;;;16.92;8.55;;;3.50;99.90;;;;;;5011406;28;20042;-69
2022/11/21 12:12:37;;;;;;;16.50;9.75;;;3.50;99.90;;;;;;5013286;28;20046;-68
2022/11/21 12:18:17;;;;;;;13.88;7.88;;;3.40;99.90;;;;;;5013654;28;20092;-69
2022/11/21 12:20:58;;;;;;;16.63;10.13;;;3.50;99.90;;;;;;5011957;28;20041;-68
2022/11/21 12:23:40;;;;;;;14.27;7.60;;;3.60;99.90;;;;;;5012980;28;20398;-69
2022/11/21 12:26:22;;;;;;;17.20;9.90;;;3.60;99.90;;;;;;4994943;28;20038;-69
2022/11/21 12:29:09;;;;;;;14.50;7.50;;;3.60;99.90;;;;;;5026847;28;20418;-68
2022/11/21 12:32:03;;;;;;;17.23;9.95;;;3.60;99.90;;;;;;5011684;28;20045;-68
2022/11/21 12:34:52;;;;;;;13.20;7.07;;;3.60;99.90;;;;;;5011776;28;20390;-69
2022/11/21 12:37:26;;;;;;;16.90;11.10;;;3.70;99.90;;;;;;5006602;28;20504;-69
2022/11/21 12:39:59;;;;;;;17.52;10.73;;;3.60;99.90;;;;;;5012644;28;20156;-69
2022/11/21 12:42:50;;;;;;;17.58;10.90;;;3.60;99.90;;;;;;5012419;28;20041;-69
2022/11/21 12:45:28;;;;;;;15.80;8.75;;;3.60;99.90;;;;;;4997043;28;20112;-69
2022/11/21 12:54:55;;;;;;;15.48;9.05;;;3.60;99.90;;;;;;5010103;28;20050;-69
2022/11/21 12:57:37;;;;;;;16.35;9.60;;;3.70;99.90;;;;;;5012853;28;20379;-68
2022/11/21 13:00:10;;;;;;;16.27;9.43;;;3.70;99.90;;;;;;5010650;28;20070;-69
2022/11/21 13:02:38;;;;;;;16.38;9.48;;;3.70;99.90;;;;;;5015729;28;20103;-69
2022/11/21 13:05:08;;;;;;;14.95;8.80;;;3.80;99.90;;;;;;5014055;28;20091;-69
2022/11/21 13:07:35;;;;;;;16.92;9.55;;;3.70;99.90;;;;;;4996812;28;20503;-69
2022/11/21 13:10:02;;;;;;;14.65;8.13;;;3.70;99.90;;;;;;5014931;28;20072;-69
2022/11/21 13:12:42;;;;;;;13.93;7.57;;;3.80;99.90;;;;;;5015859;28;20041;-68
2022/11/21 13:15:32;;;;;;;14.45;7.93;;;4.00;99.90;;;;;;5015532;28;20053;-69
2022/11/21 13:18:13;;;;;;;14.65;9.30;;;4.00;99.90;;;;;;5011093;28;20137;-69